Time;durP1;ratioP1;P1;durP2;ratioP2;P2;SDS_P1;SDS_P2;PMS_P1;PMS_P2;Temp;Humidity;BMP_temperature;BMP_pressure;BME280_temperature;BME280_humidity;BME280_pressure;Samples;Min_cycle;Max_cycle;Signal;HPM_P1;HPM_P2
2023/05/07 05:05:25;;;;;;;12.90;7.35;;;;;;;;;;1312258;22;20316;-78
2023/05/07 05:07:51;;;;;;;13.50;7.38;;;;;;;;;;5054146;28;20402;-75
2023/05/07 05:10:17;;;;;;;13.93;7.43;;;;;;;;;;5054448;28;20025;-76
2023/05/07 05:12:42;;;;;;;12.50;7.43;;;;;;;;;;5053928;28;20029;-76
2023/05/07 05:15:08;;;;;;;12.77;7.40;;;;;;;;;;5034579;28;20025;-74
2023/05/07 05:17:34;;;;;;;13.07;8.02;;;;;;;;;;5052840;28;20630;-76
2023/05/07 05:20:00;;;;;;;12.77;7.28;;;;;;;;;;5053289;28;20017;-76
2023/05/07 05:22:25;;;;;;;12.00;7.40;;;;;;;;;;5035219;28;20021;-75
2023/05/07 05:24:50;;;;;;;11.63;6.80;;;;;;;;;;5052951;28;20021;-75
2023/05/07 05:27:16;;;;;;;10.68;6.55;;;;;;;;;;5052894;28;20484;-75
2023/05/07 05:29:41;;;;;;;11.30;6.60;;;;;;;;;;5035129;28;20086;-75
2023/05/07 05:32:06;;;;;;;10.53;6.57;;;;;;;;;;5053454;28;20020;-76
2023/05/07 05:34:33;;;;;;;12.63;7.07;;;;;;;;;;5034876;28;20318;-75
2023/05/07 05:36:59;;;;;;;9.70;6.10;;;;;;;;;;5052825;28;20112;-76
2023/05/07 05:39:24;;;;;;;8.95;5.43;;;;;;;;;;5052864;28;20032;-75
2023/05/07 05:41:49;;;;;;;9.65;5.82;;;;;;;;;;5035183;28;20022;-76
2023/05/07 05:44:14;;;;;;;9.05;5.35;;;;;;;;;;5053750;28;20028;-75
2023/05/07 05:46:40;;;;;;;9.57;6.15;;;;;;;;;;5053141;28;20012;-74
2023/05/07 05:49:05;;;;;;;8.50;5.15;;;;;;;;;;5055494;28;20025;-75
2023/05/07 05:51:30;;;;;;;8.73;4.60;;;;;;;;;;5038044;28;20068;-77
2023/05/07 05:53:55;;;;;;;9.15;4.93;;;;;;;;;;5040266;28;20031;-77
2023/05/07 05:56:21;;;;;;;7.00;4.30;;;;;;;;;;5061075;28;20048;-78
2023/05/07 05:58:46;;;;;;;8.18;4.88;;;;;;;;;;5040842;28;20265;-78
2023/05/07 06:01:11;;;;;;;9.23;5.07;;;;;;;;;;5059094;28;20025;-77
2023/05/07 06:03:37;;;;;;;6.50;4.35;;;;;;;;;;5039006;28;20025;-77
2023/05/07 06:06:02;;;;;;;6.80;4.55;;;;;;;;;;5057346;28;20064;-81
2023/05/07 06:08:30;;;;;;;10.73;4.78;;;;;;;;;;5063521;28;20029;-78
2023/05/07 06:10:56;;;;;;;6.90;4.07;;;;;;;;;;5046042;28;20051;-77
2023/05/07 06:13:22;;;;;;;8.52;4.75;;;;;;;;;;5046400;28;20021;-78
2023/05/07 06:15:49;;;;;;;7.88;4.82;;;;;;;;;;5045642;28;20025;-78
2023/05/07 06:18:14;;;;;;;9.10;4.88;;;;;;;;;;5042165;28;20021;-78
2023/05/07 06:20:39;;;;;;;8.87;4.87;;;;;;;;;;5041395;28;20170;-79
2023/05/07 06:23:05;;;;;;;7.30;4.38;;;;;;;;;;5058352;28;20250;-78
2023/05/07 06:25:30;;;;;;;6.37;4.10;;;;;;;;;;5058252;28;20125;-77
2023/05/07 06:27:55;;;;;;;6.23;3.87;;;;;;;;;;5042635;28;20258;-77
2023/05/07 06:30:20;;;;;;;7.17;3.87;;;;;;;;;;5058610;28;20262;-77
2023/05/07 06:32:45;;;;;;;7.72;4.78;;;;;;;;;;5058467;28;20258;-77
2023/05/07 06:35:11;;;;;;;5.60;3.50;;;;;;;;;;5039317;28;20450;-74
2023/05/07 06:37:38;;;;;;;5.67;3.80;;;;;;;;;;5039025;28;20692;-73
2023/05/07 06:40:04;;;;;;;7.20;3.90;;;;;;;;;;5057201;28;20262;-73
2023/05/07 06:42:30;;;;;;;5.07;3.42;;;;;;;;;;5057092;28;20487;-74
2023/05/07 06:44:55;;;;;;;7.47;4.50;;;;;;;;;;5057133;28;20029;-74
2023/05/07 06:47:20;;;;;;;7.50;4.03;;;;;;;;;;5057115;28;20072;-74
2023/05/07 06:49:45;;;;;;;7.45;4.35;;;;;;;;;;5056891;28;20348;-74
2023/05/07 06:52:10;;;;;;;7.90;4.80;;;;;;;;;;5057025;28;20021;-74
2023/05/07 06:54:36;;;;;;;7.23;4.63;;;;;;;;;;5039219;28;20037;-71
2023/05/07 06:57:01;;;;;;;6.70;4.60;;;;;;;;;;5057202;28;20290;-73
2023/05/07 06:59:26;;;;;;;6.70;4.80;;;;;;;;;;5039380;28;20032;-73
2023/05/07 07:01:51;;;;;;;8.53;5.03;;;;;;;;;;5057545;28;20270;-76
2023/05/07 07:04:16;;;;;;;7.37;4.73;;;;;;;;;;5039326;28;20258;-72
2023/05/07 07:06:42;;;;;;;8.20;4.57;;;;;;;;;;5057251;28;20250;-73
2023/05/07 07:09:07;;;;;;;5.05;2.92;;;;;;;;;;5056896;28;20260;-73
2023/05/07 07:11:32;;;;;;;6.07;4.53;;;;;;;;;;5056809;28;20020;-72
2023/05/07 07:13:58;;;;;;;6.68;4.05;;;;;;;;;;5056659;28;20051;-73
2023/05/07 07:16:24;;;;;;;6.35;4.20;;;;;;;;;;5057434;28;20044;-73
2023/05/07 07:18:49;;;;;;;6.75;3.83;;;;;;;;;;5038840;28;20399;-72
2023/05/07 07:21:14;;;;;;;5.03;3.72;;;;;;;;;;5056793;28;20377;-72
2023/05/07 07:23:40;;;;;;;5.07;3.47;;;;;;;;;;5056478;28;20028;-72
2023/05/07 07:26:06;;;;;;;5.97;3.58;;;;;;;;;;5038089;28;20412;-76
2023/05/07 07:28:31;;;;;;;6.05;3.50;;;;;;;;;;5038531;28;20128;-78
2023/05/07 07:30:56;;;;;;;6.72;3.80;;;;;;;;;;5039172;28;20490;-77
2023/05/07 07:33:22;;;;;;;5.40;3.30;;;;;;;;;;5055486;28;20017;-78
2023/05/07 07:35:47;;;;;;;4.93;3.20;;;;;;;;;;5038080;28;20265;-77
2023/05/07 07:38:12;;;;;;;4.78;3.22;;;;;;;;;;5037482;28;20278;-77
2023/05/07 07:40:39;;;;;;;5.80;3.33;;;;;;;;;;5056479;28;20060;-76
2023/05/07 07:43:04;;;;;;;4.60;2.88;;;;;;;;;;5056616;28;20256;-77
2023/05/07 07:45:30;;;;;;;5.65;2.60;;;;;;;;;;5056861;28;20555;-77
2023/05/07 07:47:55;;;;;;;4.47;2.67;;;;;;;;;;5056743;28;20090;-77
2023/05/07 07:50:20;;;;;;;7.38;2.85;;;;;;;;;;5038303;28;20254;-76
2023/05/07 07:52:48;;;;;;;4.40;2.72;;;;;;;;;;5056336;28;20040;-78
2023/05/07 07:55:17;;;;;;;4.68;2.55;;;;;;;;;;5038918;28;20028;-77
2023/05/07 07:57:43;;;;;;;6.32;3.30;;;;;;;;;;5055696;28;20029;-77
2023/05/07 08:00:09;;;;;;;5.30;2.70;;;;;;;;;;5057033;28;20054;-79
2023/05/07 08:02:34;;;;;;;3.50;2.78;;;;;;;;;;5039744;28;20020;-77
2023/05/07 08:04:59;;;;;;;3.67;2.78;;;;;;;;;;5058739;28;20080;-79
2023/05/07 08:07:24;;;;;;;3.85;2.50;;;;;;;;;;5059318;28;20029;-78
2023/05/07 08:09:50;;;;;;;8.10;3.10;;;;;;;;;;5057703;28;20407;-76
2023/05/07 08:12:15;;;;;;;3.45;2.45;;;;;;;;;;5055721;28;20655;-76
2023/05/07 08:14:41;;;;;;;4.07;2.90;;;;;;;;;;5058097;28;20036;-79
2023/05/07 08:17:10;;;;;;;4.97;2.97;;;;;;;;;;5055631;28;20028;-76
2023/05/07 08:19:35;;;;;;;3.72;2.55;;;;;;;;;;5054641;28;20052;-74
2023/05/07 08:22:00;;;;;;;3.67;2.55;;;;;;;;;;5054722;28;20051;-75
2023/05/07 08:24:26;;;;;;;5.17;3.10;;;;;;;;;;5051857;28;20075;-76
2023/05/07 08:26:51;;;;;;;3.33;2.60;;;;;;;;;;5053024;28;20250;-76
2023/05/07 08:29:16;;;;;;;2.87;2.57;;;;;;;;;;5035395;28;20133;-76
2023/05/07 08:31:41;;;;;;;3.33;2.47;;;;;;;;;;5054196;28;20351;-75
2023/05/07 08:34:07;;;;;;;4.00;2.70;;;;;;;;;;5053833;28;20273;-76
2023/05/07 08:36:32;;;;;;;4.97;2.60;;;;;;;;;;5053666;28;20292;-75
2023/05/07 08:38:57;;;;;;;3.20;2.60;;;;;;;;;;5037037;28;20132;-75
2023/05/07 08:41:23;;;;;;;4.13;3.00;;;;;;;;;;5055417;28;20301;-75
2023/05/07 08:43:50;;;;;;;4.05;3.10;;;;;;;;;;5054582;28;20037;-75
2023/05/07 08:46:20;;;;;;;4.53;3.20;;;;;;;;;;5054464;28;20029;-75
2023/05/07 08:48:49;;;;;;;6.45;3.45;;;;;;;;;;5054550;28;20033;-75
2023/05/07 08:51:20;;;;;;;5.13;3.28;;;;;;;;;;5054590;28;20043;-75
2023/05/07 08:53:48;;;;;;;4.43;3.08;;;;;;;;;;5036837;28;20563;-75
2023/05/07 08:56:15;;;;;;;6.65;3.70;;;;;;;;;;5036871;28;20561;-75
2023/05/07 08:58:40;;;;;;;7.50;3.70;;;;;;;;;;5054667;28;20500;-75
2023/05/07 09:01:15;;;;;;;6.28;4.00;;;;;;;;;;5055000;28;20052;-75
2023/05/07 09:03:46;;;;;;;7.40;3.90;;;;;;;;;;5054457;28;20049;-75
2023/05/07 09:06:11;;;;;;;6.28;3.40;;;;;;;;;;5054380;28;20496;-75
2023/05/07 09:08:37;;;;;;;6.13;3.85;;;;;;;;;;5054127;28;20035;-76
2023/05/07 09:11:02;;;;;;;5.88;3.60;;;;;;;;;;5054962;28;20100;-76
2023/05/07 09:13:28;;;;;;;5.15;3.97;;;;;;;;;;5054586;28;20398;-75
2023/05/07 09:15:53;;;;;;;4.95;3.13;;;;;;;;;;5036581;28;20573;-75
2023/05/07 09:18:18;;;;;;;9.40;4.40;;;;;;;;;;5054428;28;20051;-75
2023/05/07 09:20:45;;;;;;;8.52;3.95;;;;;;;;;;5054252;28;20056;-75
2023/05/07 09:23:10;;;;;;;5.97;4.05;;;;;;;;;;5053944;28;20017;-75
2023/05/07 09:25:38;;;;;;;6.10;3.90;;;;;;;;;;5054079;28;20115;-75
2023/05/07 09:28:05;;;;;;;6.55;3.90;;;;;;;;;;5036037;28;20300;-75
2023/05/07 09:30:31;;;;;;;5.95;4.18;;;;;;;;;;5053817;28;20458;-75
2023/05/07 09:33:01;;;;;;;5.82;4.30;;;;;;;;;;5053651;28;20033;-74
2023/05/07 09:35:27;;;;;;;6.30;3.85;;;;;;;;;;5053516;28;20032;-74
2023/05/07 09:37:56;;;;;;;5.43;3.97;;;;;;;;;;5035661;28;20070;-75
2023/05/07 09:40:22;;;;;;;4.82;3.63;;;;;;;;;;5053610;28;20024;-74
2023/05/07 09:42:49;;;;;;;5.40;3.67;;;;;;;;;;5036107;28;20032;-73
2023/05/07 09:45:14;;;;;;;5.35;3.92;;;;;;;;;;5035933;28;20043;-75
2023/05/07 09:47:44;;;;;;;5.18;3.42;;;;;;;;;;5053510;28;20151;-74
2023/05/07 09:50:10;;;;;;;5.35;3.60;;;;;;;;;;5053778;28;20468;-76
2023/05/07 09:52:36;;;;;;;5.10;3.50;;;;;;;;;;5035525;28;20025;-75
2023/05/07 09:55:02;;;;;;;5.57;3.63;;;;;;;;;;5035762;28;20120;-75
2023/05/07 09:57:29;;;;;;;5.53;3.80;;;;;;;;;;5053425;28;20032;-75
2023/05/07 09:59:57;;;;;;;5.47;4.18;;;;;;;;;;5035800;28;20044;-75
2023/05/07 10:02:25;;;;;;;7.90;4.93;;;;;;;;;;5057670;28;20033;-74
2023/05/07 10:04:50;;;;;;;7.10;4.07;;;;;;;;;;5057685;28;20025;-75
2023/05/07 10:07:17;;;;;;;7.45;5.10;;;;;;;;;;5057493;28;20055;-75
2023/05/07 10:09:43;;;;;;;6.50;4.45;;;;;;;;;;5039798;28;20082;-76
2023/05/07 10:12:09;;;;;;;8.13;4.55;;;;;;;;;;5057728;28;20029;-74
2023/05/07 10:14:35;;;;;;;5.63;3.90;;;;;;;;;;5058012;28;20537;-75
2023/05/07 10:17:02;;;;;;;9.98;6.80;;;;;;;;;;5039612;28;20029;-75
2023/05/07 10:19:29;;;;;;;5.57;4.43;;;;;;;;;;5058288;28;20115;-75
2023/05/07 10:21:59;;;;;;;4.40;3.65;;;;;;;;;;5039939;28;20025;-75
2023/05/07 10:24:36;;;;;;;7.20;4.97;;;;;;;;;;5040142;28;20131;-74
2023/05/07 10:27:04;;;;;;;6.10;4.28;;;;;;;;;;5058954;28;20028;-75
2023/05/07 10:29:37;;;;;;;3.50;2.85;;;;;;;;;;5058780;28;20409;-74
2023/05/07 10:32:11;;;;;;;8.23;4.95;;;;;;;;;;5058553;28;20082;-74
2023/05/07 10:34:38;;;;;;;;;;;;;;;;;;5058908;28;20029;-75
2023/05/07 10:37:04;;;;;;;6.47;4.70;;;;;;;;;;5040486;28;19971;-75
2023/05/07 10:39:29;;;;;;;5.63;4.15;;;;;;;;;;5058433;28;20021;-75
2023/05/07 10:41:55;;;;;;;8.02;4.53;;;;;;;;;;5040496;28;20028;-76
2023/05/07 10:44:28;;;;;;;6.13;4.15;;;;;;;;;;5058091;28;20021;-75
2023/05/07 10:47:12;;;;;;;7.15;4.70;;;;;;;;;;5040470;28;20017;-75
2023/05/07 10:49:43;;;;;;;5.75;3.85;;;;;;;;;;5058661;28;20052;-74
2023/05/07 10:52:15;;;;;;;4.85;3.60;;;;;;;;;;5058558;28;20544;-75
2023/05/07 10:54:41;;;;;;;4.55;3.70;;;;;;;;;;5040441;28;20510;-75
2023/05/07 10:57:37;;;;;;;6.97;3.88;;;;;;;;;;5058265;28;20110;-75
2023/05/07 11:00:23;;;;;;;3.97;3.38;;;;;;;;;;5030228;28;20048;-75
2023/05/07 11:03:01;;;;;;;4.05;3.40;;;;;;;;;;5058877;28;20076;-75
2023/05/07 11:05:28;;;;;;;6.15;3.45;;;;;;;;;;5058338;28;20044;-75
2023/05/07 11:07:55;;;;;;;4.65;3.60;;;;;;;;;;5040671;28;20064;-75
2023/05/07 11:10:21;;;;;;;4.93;3.42;;;;;;;;;;5058091;28;20078;-76
2023/05/07 11:12:47;;;;;;;8.38;3.67;;;;;;;;;;5056997;28;20120;-74
2023/05/07 11:15:15;;;;;;;4.10;3.25;;;;;;;;;;5058405;28;20408;-76
2023/05/07 11:17:57;;;;;;;4.60;3.13;;;;;;;;;;5039862;28;20025;-75
2023/05/07 11:20:46;;;;;;;4.72;3.28;;;;;;;;;;5058101;28;20087;-74
2023/05/07 11:23:33;;;;;;;6.47;3.65;;;;;;;;;;5059728;28;20025;-76
2023/05/07 11:26:08;;;;;;;5.00;3.28;;;;;;;;;;5057975;28;20441;-78
2023/05/07 11:28:41;;;;;;;4.32;3.28;;;;;;;;;;5057225;28;20025;-76
2023/05/07 11:31:07;;;;;;;7.93;5.70;;;;;;;;;;5056604;28;20035;-75
2023/05/07 11:33:33;;;;;;;4.63;3.33;;;;;;;;;;5039039;28;20033;-73
2023/05/07 11:36:04;;;;;;;4.50;3.40;;;;;;;;;;5056773;28;20028;-74
2023/05/07 11:38:36;;;;;;;5.38;3.45;;;;;;;;;;5056130;28;20095;-74
2023/05/07 11:41:04;;;;;;;5.80;4.30;;;;;;;;;;5054085;28;20032;-73
2023/05/07 11:43:30;;;;;;;4.70;3.72;;;;;;;;;;5053413;28;20017;-74
2023/05/07 11:46:05;;;;;;;7.78;3.70;;;;;;;;;;5054377;28;20361;-74
2023/05/07 11:48:30;;;;;;;5.03;3.70;;;;;;;;;;5053906;28;20535;-75
2023/05/07 11:51:01;;;;;;;8.45;4.10;;;;;;;;;;5035823;28;20120;-74
2023/05/07 11:53:28;;;;;;;5.50;3.90;;;;;;;;;;5053969;28;20021;-74
2023/05/07 11:55:55;;;;;;;5.18;3.83;;;;;;;;;;5055540;28;20021;-73
2023/05/07 11:58:22;;;;;;;4.88;3.53;;;;;;;;;;5038224;28;20051;-72
2023/05/07 12:00:54;;;;;;;4.30;3.38;;;;;;;;;;5038713;28;20123;-76
2023/05/07 12:03:20;;;;;;;4.93;3.88;;;;;;;;;;5058931;28;20029;-77
2023/05/07 12:05:46;;;;;;;6.55;4.03;;;;;;;;;;5038680;28;20028;-74
2023/05/07 12:08:18;;;;;;;4.93;3.50;;;;;;;;;;5056851;28;20044;-74
2023/05/07 12:10:45;;;;;;;4.63;3.70;;;;;;;;;;5056581;28;20078;-76
2023/05/07 12:13:21;;;;;;;5.18;3.50;;;;;;;;;;5054683;28;20020;-76
2023/05/07 12:15:46;;;;;;;4.53;3.78;;;;;;;;;;5054804;28;20559;-75
2023/05/07 12:18:12;;;;;;;4.78;3.35;;;;;;;;;;5036502;28;20163;-76
2023/05/07 12:20:38;;;;;;;4.63;3.47;;;;;;;;;;5053028;28;20033;-76
2023/05/07 12:23:03;;;;;;;4.50;3.03;;;;;;;;;;5053481;28;20032;-75
2023/05/07 12:25:35;;;;;;;5.45;3.65;;;;;;;;;;5052772;28;20168;-76
2023/05/07 12:28:01;;;;;;;7.78;3.55;;;;;;;;;;5036073;28;20029;-75
2023/05/07 12:30:27;;;;;;;5.38;3.50;;;;;;;;;;5054648;28;20028;-75
2023/05/07 12:32:53;;;;;;;5.13;3.50;;;;;;;;;;5053932;28;20461;-75
2023/05/07 12:35:27;;;;;;;3.33;2.78;;;;;;;;;;5054004;28;20542;-76
2023/05/07 12:37:59;;;;;;;4.07;3.00;;;;;;;;;;5035914;28;20039;-76
2023/05/07 12:40:35;;;;;;;4.32;3.35;;;;;;;;;;5053762;28;20500;-76
2023/05/07 12:43:00;;;;;;;3.85;3.00;;;;;;;;;;5054350;28;20028;-76
2023/05/07 12:45:26;;;;;;;3.63;2.67;;;;;;;;;;5035708;28;20437;-78
2023/05/07 12:47:51;;;;;;;3.83;3.20;;;;;;;;;;5053026;28;20702;-77
2023/05/07 12:50:16;;;;;;;4.07;3.17;;;;;;;;;;5053702;28;20031;-75
2023/05/07 12:52:49;;;;;;;4.35;3.42;;;;;;;;;;5053651;28;20052;-77
2023/05/07 12:55:15;;;;;;;4.18;3.25;;;;;;;;;;5036093;28;20060;-76
2023/05/07 12:57:48;;;;;;;6.90;3.28;;;;;;;;;;5053652;28;20033;-77
2023/05/07 13:00:14;;;;;;;2.88;2.25;;;;;;;;;;5036067;28;20047;-74
2023/05/07 13:02:41;;;;;;;3.85;3.13;;;;;;;;;;5035578;28;20103;-75
2023/05/07 13:05:07;;;;;;;4.78;3.60;;;;;;;;;;5053596;28;20071;-75
2023/05/07 13:07:32;;;;;;;5.63;2.50;;;;;;;;;;5053528;28;20495;-74
2023/05/07 13:09:58;;;;;;;4.38;3.08;;;;;;;;;;5053697;28;20123;-74
2023/05/07 13:12:23;;;;;;;3.03;2.67;;;;;;;;;;5052991;28;20108;-75
2023/05/07 13:14:48;;;;;;;2.70;2.33;;;;;;;;;;5052130;28;20308;-76
2023/05/07 13:17:13;;;;;;;4.20;2.90;;;;;;;;;;5052439;28;20415;-76
2023/05/07 13:19:39;;;;;;;3.90;2.83;;;;;;;;;;5053370;28;20037;-75
2023/05/07 13:22:04;;;;;;;5.22;3.65;;;;;;;;;;5053285;28;20273;-75
2023/05/07 13:24:29;;;;;;;3.28;2.72;;;;;;;;;;5053922;28;20108;-76
2023/05/07 13:26:54;;;;;;;3.87;2.90;;;;;;;;;;5053643;28;20040;-76
2023/05/07 13:29:25;;;;;;;4.25;2.92;;;;;;;;;;5035516;28;20423;-74
2023/05/07 13:31:50;;;;;;;4.38;2.75;;;;;;;;;;5055439;28;20035;-78
2023/05/07 13:34:15;;;;;;;4.35;3.00;;;;;;;;;;5057116;28;20049;-77
2023/05/07 13:36:41;;;;;;;3.63;2.88;;;;;;;;;;5054793;28;20032;-78
2023/05/07 13:39:07;;;;;;;4.45;2.15;;;;;;;;;;5053947;28;20025;-78
2023/05/07 13:41:32;;;;;;;3.63;2.72;;;;;;;;;;5055599;28;20387;-75
2023/05/07 13:43:57;;;;;;;5.23;3.00;;;;;;;;;;5053153;28;20025;-76
2023/05/07 13:46:22;;;;;;;3.37;2.43;;;;;;;;;;5053212;28;20258;-77
2023/05/07 13:48:47;;;;;;;3.87;3.13;;;;;;;;;;5035677;28;20285;-76
2023/05/07 13:51:13;;;;;;;4.55;2.45;;;;;;;;;;5053674;28;20273;-77
2023/05/07 13:53:38;;;;;;;3.90;2.60;;;;;;;;;;5053481;28;20105;-76
2023/05/07 13:56:04;;;;;;;4.00;2.70;;;;;;;;;;5053750;28;20297;-76
2023/05/07 13:58:30;;;;;;;3.78;2.70;;;;;;;;;;5053611;28;20025;-77
2023/05/07 14:00:55;;;;;;;2.75;2.45;;;;;;;;;;5053493;28;20545;-76
2023/05/07 14:03:20;;;;;;;3.35;2.45;;;;;;;;;;5052970;28;20025;-76
2023/05/07 14:05:46;;;;;;;2.80;2.10;;;;;;;;;;5052986;28;20060;-76
2023/05/07 14:08:13;;;;;;;2.60;1.90;;;;;;;;;;5053158;28;20047;-76
2023/05/07 14:10:38;;;;;;;3.20;2.58;;;;;;;;;;5035298;28;20021;-76
2023/05/07 14:13:04;;;;;;;3.10;2.20;;;;;;;;;;5035264;28;20106;-76
2023/05/07 14:15:29;;;;;;;3.22;2.17;;;;;;;;;;5053501;28;20100;-76
2023/05/07 14:17:54;;;;;;;4.53;2.10;;;;;;;;;;5052744;28;20060;-76
2023/05/07 14:20:20;;;;;;;2.90;2.10;;;;;;;;;;5052731;28;20250;-76
2023/05/07 14:22:45;;;;;;;7.22;2.05;;;;;;;;;;5053138;28;20261;-76
2023/05/07 14:25:10;;;;;;;2.50;1.98;;;;;;;;;;5053375;28;20075;-76
2023/05/07 14:27:36;;;;;;;2.67;2.03;;;;;;;;;;5035074;28;20021;-75
2023/05/07 14:30:01;;;;;;;1.75;1.35;;;;;;;;;;5053113;28;20036;-75
2023/05/07 14:32:26;;;;;;;3.17;1.98;;;;;;;;;;5034781;28;20028;-76
2023/05/07 14:34:52;;;;;;;3.63;1.98;;;;;;;;;;5034936;28;20078;-76
2023/05/07 14:37:19;;;;;;;4.85;1.80;;;;;;;;;;5052601;28;20052;-77
2023/05/07 14:39:44;;;;;;;2.97;2.10;;;;;;;;;;5052729;28;20025;-76
2023/05/07 14:42:11;;;;;;;1.90;1.63;;;;;;;;;;5034704;28;20021;-76
2023/05/07 14:44:36;;;;;;;5.50;2.15;;;;;;;;;;5034971;28;20079;-75
2023/05/07 14:47:01;;;;;;;2.50;2.17;;;;;;;;;;5054820;28;20024;-76
2023/05/07 14:49:27;;;;;;;2.53;2.00;;;;;;;;;;5056370;28;20080;-76
2023/05/07 14:51:52;;;;;;;2.73;2.27;;;;;;;;;;5038349;28;20025;-76
2023/05/07 14:54:17;;;;;;;3.50;2.80;;;;;;;;;;5056143;28;20254;-75
2023/05/07 14:56:42;;;;;;;3.77;2.50;;;;;;;;;;5056188;28;20278;-75
2023/05/07 14:59:08;;;;;;;4.13;2.60;;;;;;;;;;5056462;28;20254;-76
2023/05/07 15:01:35;;;;;;;3.05;2.28;;;;;;;;;;5038221;28;20021;-75
2023/05/07 15:04:00;;;;;;;3.60;2.80;;;;;;;;;;5038249;28;20032;-77
2023/05/07 15:06:26;;;;;;;3.25;2.60;;;;;;;;;;5055914;28;20029;-76
2023/05/07 15:08:52;;;;;;;4.05;2.80;;;;;;;;;;5055927;28;20045;-76
2023/05/07 15:11:17;;;;;;;3.88;2.17;;;;;;;;;;5056153;28;20021;-75
2023/05/07 15:13:42;;;;;;;2.42;1.90;;;;;;;;;;5056376;28;20029;-75
2023/05/07 15:16:07;;;;;;;4.10;2.67;;;;;;;;;;5056220;28;20127;-76
2023/05/07 15:18:33;;;;;;;5.43;3.55;;;;;;;;;;5056446;28;20029;-76
2023/05/07 15:20:58;;;;;;;6.23;3.20;;;;;;;;;;5038610;28;20021;-75
2023/05/07 15:23:23;;;;;;;6.53;3.92;;;;;;;;;;5056457;28;20262;-76
2023/05/07 15:25:48;;;;;;;4.65;3.40;;;;;;;;;;5038120;28;20025;-75
2023/05/07 15:28:14;;;;;;;3.77;2.60;;;;;;;;;;5055457;28;20108;-75
2023/05/07 15:30:39;;;;;;;4.30;2.25;;;;;;;;;;5037707;28;20258;-76
2023/05/07 15:33:05;;;;;;;4.67;2.87;;;;;;;;;;5037362;28;20029;-76
2023/05/07 15:35:30;;;;;;;5.45;3.25;;;;;;;;;;5055398;28;20337;-74
2023/05/07 15:37:55;;;;;;;3.85;2.55;;;;;;;;;;5037401;28;20065;-75
2023/05/07 15:40:20;;;;;;;6.70;3.10;;;;;;;;;;5037443;28;20471;-75
2023/05/07 15:42:46;;;;;;;4.93;2.83;;;;;;;;;;5054963;28;20629;-76
2023/05/07 15:45:12;;;;;;;5.93;3.40;;;;;;;;;;5054630;28;20025;-77
2023/05/07 15:47:37;;;;;;;4.00;2.97;;;;;;;;;;5054936;28;20036;-75
2023/05/07 15:50:03;;;;;;;5.30;3.40;;;;;;;;;;5055563;28;20027;-77
2023/05/07 15:52:29;;;;;;;5.15;2.75;;;;;;;;;;5038165;28;20118;-76
2023/05/07 15:54:57;;;;;;;3.72;3.00;;;;;;;;;;5036897;28;20021;-75
2023/05/07 15:57:23;;;;;;;3.85;2.45;;;;;;;;;;5036740;28;20028;-75
2023/05/07 15:59:49;;;;;;;3.20;2.33;;;;;;;;;;5054432;28;20036;-75
2023/05/07 16:02:14;;;;;;;5.15;2.67;;;;;;;;;;5054697;28;20021;-76
2023/05/07 16:04:40;;;;;;;4.38;3.45;;;;;;;;;;5054869;28;20104;-74
2023/05/07 16:07:06;;;;;;;4.22;3.10;;;;;;;;;;5054930;28;20387;-75
2023/05/07 16:09:31;;;;;;;3.35;2.67;;;;;;;;;;5055164;28;20443;-76
2023/05/07 16:11:57;;;;;;;4.55;3.30;;;;;;;;;;5037635;28;20025;-75
2023/05/07 16:14:23;;;;;;;3.40;2.80;;;;;;;;;;5055014;28;20476;-76
2023/05/07 16:16:48;;;;;;;3.95;2.67;;;;;;;;;;5054456;28;20274;-75
2023/05/07 16:19:14;;;;;;;4.30;3.03;;;;;;;;;;5056141;28;20550;-79
2023/05/07 16:21:39;;;;;;;4.88;3.50;;;;;;;;;;5055445;28;20024;-76
2023/05/07 16:24:05;;;;;;;4.28;2.90;;;;;;;;;;5054220;28;20028;-75
2023/05/07 16:26:30;;;;;;;4.22;3.22;;;;;;;;;;5055250;28;20029;-76
2023/05/07 16:28:58;;;;;;;4.65;2.95;;;;;;;;;;5036518;28;20028;-75
2023/05/07 16:31:24;;;;;;;3.85;2.30;;;;;;;;;;5036689;28;20447;-76
2023/05/07 16:33:50;;;;;;;4.45;3.60;;;;;;;;;;5037544;28;20489;-76
2023/05/07 16:36:15;;;;;;;6.65;2.50;;;;;;;;;;5054067;28;20033;-76
2023/05/07 16:38:40;;;;;;;5.45;3.80;;;;;;;;;;5053869;28;20033;-76
2023/05/07 16:41:06;;;;;;;5.75;3.60;;;;;;;;;;5054120;28;20031;-76
2023/05/07 16:43:31;;;;;;;4.43;2.75;;;;;;;;;;5054176;28;20055;-76
2023/05/07 16:45:56;;;;;;;3.97;2.87;;;;;;;;;;5054009;28;20059;-75
2023/05/07 16:48:21;;;;;;;4.82;2.95;;;;;;;;;;5054025;28;20254;-74
2023/05/07 16:50:47;;;;;;;6.43;3.58;;;;;;;;;;5054237;28;20129;-76
2023/05/07 16:53:12;;;;;;;5.68;3.33;;;;;;;;;;5054013;28;20111;-76
2023/05/07 16:55:38;;;;;;;5.35;3.17;;;;;;;;;;5053842;28;20481;-76
2023/05/07 16:58:08;;;;;;;4.10;3.33;;;;;;;;;;5053346;28;20100;-76
2023/05/07 17:00:33;;;;;;;4.28;3.20;;;;;;;;;;5053530;28;20031;-76
2023/05/07 17:02:59;;;;;;;4.90;3.22;;;;;;;;;;5053790;28;20041;-76
2023/05/07 17:05:24;;;;;;;4.05;3.13;;;;;;;;;;5035405;28;20495;-76
2023/05/07 17:07:50;;;;;;;4.22;3.45;;;;;;;;;;5053748;28;20021;-75
2023/05/07 17:10:16;;;;;;;5.50;3.47;;;;;;;;;;5034592;28;20488;-76
2023/05/07 17:12:41;;;;;;;8.38;3.38;;;;;;;;;;5053699;28;20035;-75
2023/05/07 17:15:07;;;;;;;3.83;2.70;;;;;;;;;;5053271;28;20133;-76
2023/05/07 17:17:32;;;;;;;5.05;3.60;;;;;;;;;;5053198;28;20649;-75
2023/05/07 17:19:58;;;;;;;6.50;3.58;;;;;;;;;;5053291;28;20016;-76
2023/05/07 17:22:24;;;;;;;5.13;3.53;;;;;;;;;;5054137;28;20046;-77
2023/05/07 17:24:49;;;;;;;5.70;3.75;;;;;;;;;;5036718;28;20029;-76
2023/05/07 17:27:14;;;;;;;4.50;2.88;;;;;;;;;;5053228;28;20063;-74
2023/05/07 17:29:40;;;;;;;6.43;3.28;;;;;;;;;;5054597;28;20159;-75
2023/05/07 17:32:05;;;;;;;4.80;3.03;;;;;;;;;;5054771;28;20510;-74
2023/05/07 17:34:31;;;;;;;4.00;3.00;;;;;;;;;;5054429;28;20752;-75
2023/05/07 17:36:57;;;;;;;4.80;3.20;;;;;;;;;;5054481;28;20028;-74
2023/05/07 17:39:22;;;;;;;2.50;1.90;;;;;;;;;;5054165;28;20021;-75
2023/05/07 17:41:48;;;;;;;6.00;2.65;;;;;;;;;;5054517;28;20027;-75
2023/05/07 17:44:13;;;;;;;4.60;3.17;;;;;;;;;;5054664;28;20480;-74
2023/05/07 17:46:38;;;;;;;4.80;3.20;;;;;;;;;;5054629;28;20761;-75
2023/05/07 17:49:03;;;;;;;4.63;2.70;;;;;;;;;;5054961;28;20029;-75
2023/05/07 17:51:29;;;;;;;4.03;3.00;;;;;;;;;;5054056;28;20353;-75
2023/05/07 17:53:55;;;;;;;3.58;2.80;;;;;;;;;;5036815;28;20293;-75
2023/05/07 17:56:21;;;;;;;3.72;2.83;;;;;;;;;;5054184;28;20028;-74
2023/05/07 17:58:46;;;;;;;4.97;3.10;;;;;;;;;;5036717;28;20025;-77
2023/05/07 18:01:12;;;;;;;6.13;3.47;;;;;;;;;;5054307;28;20148;-76
2023/05/07 18:03:40;;;;;;;4.60;3.67;;;;;;;;;;5054326;28;20021;-73
2023/05/07 18:06:05;;;;;;;6.07;3.55;;;;;;;;;;5054391;28;20338;-75
2023/05/07 18:08:30;;;;;;;3.20;2.70;;;;;;;;;;5054464;28;20060;-75
2023/05/07 18:10:56;;;;;;;4.28;3.25;;;;;;;;;;5036737;28;20323;-75
2023/05/07 18:13:21;;;;;;;7.47;3.65;;;;;;;;;;5054548;28;20025;-75
2023/05/07 18:15:46;;;;;;;5.00;3.70;;;;;;;;;;5054572;28;20435;-75
2023/05/07 18:18:12;;;;;;;5.38;2.97;;;;;;;;;;5054839;28;20684;-75
2023/05/07 18:20:37;;;;;;;4.85;3.20;;;;;;;;;;5055259;28;20510;-74
2023/05/07 18:23:03;;;;;;;5.18;3.83;;;;;;;;;;5058307;28;20025;-75
2023/05/07 18:25:28;;;;;;;5.80;4.00;;;;;;;;;;5040105;28;20031;-74
2023/05/07 18:27:53;;;;;;;5.25;3.97;;;;;;;;;;5058371;28;20025;-76
2023/05/07 18:30:19;;;;;;;5.37;3.73;;;;;;;;;;5041014;28;20021;-76
2023/05/07 18:32:44;;;;;;;4.15;3.10;;;;;;;;;;5040326;28;20246;-76
2023/05/07 18:35:09;;;;;;;5.53;4.00;;;;;;;;;;5058097;28;20029;-75
2023/05/07 18:37:35;;;;;;;7.10;4.25;;;;;;;;;;5057401;28;20284;-74
2023/05/07 18:40:02;;;;;;;5.35;3.85;;;;;;;;;;5039805;28;20025;-74
2023/05/07 18:42:28;;;;;;;7.50;4.18;;;;;;;;;;5058006;28;20035;-75
2023/05/07 18:44:53;;;;;;;6.82;4.30;;;;;;;;;;5057972;28;20091;-75
2023/05/07 18:47:19;;;;;;;6.32;4.07;;;;;;;;;;5057923;28;20032;-76
2023/05/07 18:49:44;;;;;;;5.25;3.90;;;;;;;;;;5057744;28;20016;-75
2023/05/07 18:52:09;;;;;;;5.75;4.45;;;;;;;;;;5057804;28;20487;-75
2023/05/07 18:54:34;;;;;;;5.60;4.43;;;;;;;;;;5057510;28;20075;-75
2023/05/07 18:57:00;;;;;;;6.00;4.20;;;;;;;;;;5057520;28;20039;-75
2023/05/07 18:59:25;;;;;;;5.13;3.92;;;;;;;;;;5057183;28;20290;-74
2023/05/07 19:01:50;;;;;;;5.60;4.40;;;;;;;;;;5056894;28;20025;-75
2023/05/07 19:04:16;;;;;;;6.45;4.55;;;;;;;;;;5039696;28;20254;-75
2023/05/07 19:06:42;;;;;;;5.55;4.15;;;;;;;;;;5057594;28;20029;-75
2023/05/07 19:09:07;;;;;;;5.70;4.38;;;;;;;;;;5056929;28;20036;-75
2023/05/07 19:11:32;;;;;;;8.88;3.92;;;;;;;;;;5057254;28;20025;-74
2023/05/07 19:13:58;;;;;;;7.73;4.33;;;;;;;;;;5056358;28;20118;-75
2023/05/07 19:16:23;;;;;;;5.32;3.95;;;;;;;;;;5038003;28;20258;-75
2023/05/07 19:18:48;;;;;;;5.55;4.18;;;;;;;;;;5038145;28;20028;-75
2023/05/07 19:21:13;;;;;;;5.50;4.27;;;;;;;;;;5056151;28;20136;-75
2023/05/07 19:23:41;;;;;;;5.07;3.90;;;;;;;;;;5056627;28;20290;-76
2023/05/07 19:26:08;;;;;;;6.30;4.35;;;;;;;;;;5056634;28;20025;-75
2023/05/07 19:28:34;;;;;;;6.63;4.10;;;;;;;;;;5056172;28;20036;-75
2023/05/07 19:30:59;;;;;;;5.25;4.20;;;;;;;;;;5038749;28;20112;-74
2023/05/07 19:33:25;;;;;;;6.13;4.65;;;;;;;;;;5055945;28;20472;-75
2023/05/07 19:35:52;;;;;;;7.93;4.35;;;;;;;;;;5056835;28;20037;-74
2023/05/07 19:38:18;;;;;;;5.80;4.43;;;;;;;;;;5056416;28;20082;-75
2023/05/07 19:40:43;;;;;;;5.88;4.40;;;;;;;;;;5056742;28;20104;-74
2023/05/07 19:43:08;;;;;;;5.17;4.00;;;;;;;;;;5056831;28;20477;-75